Time;durP1;ratioP1;P1;durP2;ratioP2;P2;SDS_P1;SDS_P2;PMS_P1;PMS_P2;Temp;Humidity;BMP_temperature;BMP_pressure;BME280_temperature;BME280_humidity;BME280_pressure;Samples;Min_cycle;Max_cycle;Signal;HPM_P1;HPM_P2
2024/01/23 00:01:19;;;;;;;8.48;2.50;;;;;;;;;;5088633;28;20404;-55
2024/01/23 00:03:45;;;;;;;10.73;2.60;;;;;;;;;;5090177;28;20402;-55
2024/01/23 00:06:11;;;;;;;10.23;2.80;;;;;;;;;;5091904;28;20459;-55
2024/01/23 00:08:37;;;;;;;7.22;2.42;;;;;;;;;;5090416;28;20382;-52
2024/01/23 00:11:04;;;;;;;10.40;2.38;;;;;;;;;;5074365;28;20472;-51
2024/01/23 00:13:30;;;;;;;11.02;2.55;;;;;;;;;;5070535;28;20419;-52
2024/01/23 00:15:55;;;;;;;10.45;2.60;;;;;;;;;;5077062;28;20505;-51
2024/01/23 00:18:22;;;;;;;9.30;2.22;;;;;;;;;;5091250;28;20385;-52
2024/01/23 00:20:48;;;;;;;6.65;1.92;;;;;;;;;;5090748;28;20862;-53
2024/01/23 00:23:14;;;;;;;9.38;2.40;;;;;;;;;;5091209;28;20435;-51
2024/01/23 00:25:40;;;;;;;8.77;2.10;;;;;;;;;;5089702;28;22381;-52
2024/01/23 00:28:06;;;;;;;9.50;2.15;;;;;;;;;;5086628;28;20438;-53
2024/01/23 00:30:32;;;;;;;8.27;2.38;;;;;;;;;;5088211;28;20914;-52
2024/01/23 00:33:02;;;;;;;8.23;2.17;;;;;;;;;;5088877;28;20913;-52
2024/01/23 00:35:28;;;;;;;11.18;2.50;;;;;;;;;;5062188;28;20620;-53
2024/01/23 00:37:54;;;;;;;8.23;1.98;;;;;;;;;;5082683;28;20902;-52
2024/01/23 00:40:20;;;;;;;8.05;2.33;;;;;;;;;;5086008;28;20768;-52
2024/01/23 00:42:46;;;;;;;6.80;1.93;;;;;;;;;;5086041;28;20871;-54
2024/01/23 00:45:12;;;;;;;11.00;2.00;;;;;;;;;;5090162;28;20468;-51
2024/01/23 00:47:38;;;;;;;7.13;2.22;;;;;;;;;;5085721;28;20413;-53
2024/01/23 00:50:04;;;;;;;7.65;2.00;;;;;;;;;;5090152;28;20405;-54
2024/01/23 00:52:30;;;;;;;8.18;1.90;;;;;;;;;;5088694;28;20409;-50
2024/01/23 00:54:59;;;;;;;9.05;2.17;;;;;;;;;;5090511;28;20732;-53
2024/01/23 00:57:25;;;;;;;10.60;2.30;;;;;;;;;;5090495;28;20366;-54
2024/01/23 00:59:51;;;;;;;10.43;2.55;;;;;;;;;;5088832;28;20379;-52
2024/01/23 01:02:17;;;;;;;7.15;2.50;;;;;;;;;;5079429;28;20403;-53
2024/01/23 01:04:46;;;;;;;7.38;2.25;;;;;;;;;;5082867;28;20398;-53
2024/01/23 01:07:12;;;;;;;8.20;2.05;;;;;;;;;;5090794;28;20457;-53
2024/01/23 01:09:38;;;;;;;7.57;2.13;;;;;;;;;;5090904;28;20430;-51
2024/01/23 01:12:05;;;;;;;8.55;2.30;;;;;;;;;;5090483;28;20382;-52
2024/01/23 01:14:31;;;;;;;7.38;2.20;;;;;;;;;;5080803;28;20460;-51
2024/01/23 01:16:57;;;;;;;11.00;2.42;;;;;;;;;;5078775;28;20394;-51
2024/01/23 01:19:23;;;;;;;5.22;1.90;;;;;;;;;;5090366;28;20377;-53
2024/01/23 01:21:49;;;;;;;9.32;1.95;;;;;;;;;;5080985;28;21003;-51
2024/01/23 01:24:15;;;;;;;12.10;2.15;;;;;;;;;;5089116;28;20409;-52
2024/01/23 01:26:41;;;;;;;6.00;2.00;;;;;;;;;;5090049;28;20386;-53
2024/01/23 01:29:07;;;;;;;5.30;1.70;;;;;;;;;;5090232;28;20381;-52
2024/01/23 01:31:33;;;;;;;8.55;1.88;;;;;;;;;;5085867;28;21227;-52
2024/01/23 01:33:59;;;;;;;5.82;1.48;;;;;;;;;;5089891;28;20417;-50
2024/01/23 01:36:25;;;;;;;9.25;1.70;;;;;;;;;;5090317;28;20386;-51
2024/01/23 01:38:51;;;;;;;6.30;1.55;;;;;;;;;;5090489;28;20859;-54
2024/01/23 01:41:17;;;;;;;5.35;1.52;;;;;;;;;;5092180;28;20404;-54
2024/01/23 01:43:43;;;;;;;7.43;1.80;;;;;;;;;;5093847;28;20382;-53
2024/01/23 01:46:20;;;;;;;6.88;2.10;;;;;;;;;;5093981;28;20396;-51
2024/01/23 01:48:47;;;;;;;6.20;1.88;;;;;;;;;;5084867;28;20414;-52
2024/01/23 01:51:14;;;;;;;5.55;1.52;;;;;;;;;;5094203;28;20378;-52
2024/01/23 01:53:40;;;;;;;8.07;1.80;;;;;;;;;;5093124;28;20943;-53
2024/01/23 01:56:07;;;;;;;7.45;1.58;;;;;;;;;;5091000;28;20894;-51
2024/01/23 01:58:33;;;;;;;7.00;1.73;;;;;;;;;;5076051;28;20398;-53
2024/01/23 02:01:02;;;;;;;5.05;1.50;;;;;;;;;;5083956;28;20389;-55
2024/01/23 02:03:29;;;;;;;7.57;1.63;;;;;;;;;;5092836;28;20936;-58
2024/01/23 02:05:56;;;;;;;5.07;1.40;;;;;;;;;;5083419;28;20433;-58
2024/01/23 02:08:22;;;;;;;7.35;1.65;;;;;;;;;;5084694;28;20378;-58
2024/01/23 02:10:48;;;;;;;5.15;1.52;;;;;;;;;;5085109;28;20410;-55
2024/01/23 02:13:14;;;;;;;8.90;1.55;;;;;;;;;;5084526;28;20406;-58
2024/01/23 02:15:40;;;;;;;7.15;1.90;;;;;;;;;;5074356;28;20415;-57
2024/01/23 02:18:06;;;;;;;6.45;1.90;;;;;;;;;;5089645;28;20394;-57
2024/01/23 02:20:32;;;;;;;8.10;1.80;;;;;;;;;;5082737;28;20404;-55
2024/01/23 02:22:58;;;;;;;5.10;1.70;;;;;;;;;;5086675;28;20762;-55
2024/01/23 02:25:24;;;;;;;5.25;2.03;;;;;;;;;;5073512;28;20375;-57
2024/01/23 02:27:50;;;;;;;6.28;1.77;;;;;;;;;;5088360;28;20908;-56
2024/01/23 02:30:16;;;;;;;10.43;2.42;;;;;;;;;;5090952;28;20445;-56
2024/01/23 02:32:45;;;;;;;8.90;2.22;;;;;;;;;;5086920;28;20891;-57
2024/01/23 02:35:12;;;;;;;12.88;2.40;;;;;;;;;;5090897;28;20404;-58
2024/01/23 02:37:39;;;;;;;12.48;2.50;;;;;;;;;;5093552;28;20408;-58
2024/01/23 02:40:05;;;;;;;10.90;2.53;;;;;;;;;;5079434;28;20380;-57
2024/01/23 02:42:31;;;;;;;8.75;2.25;;;;;;;;;;5073615;28;20474;-53
2024/01/23 02:44:57;;;;;;;7.47;2.60;;;;;;;;;;5088639;28;20382;-56
2024/01/23 02:47:23;;;;;;;8.88;1.95;;;;;;;;;;5078291;28;20513;-57
2024/01/23 02:49:50;;;;;;;8.25;2.20;;;;;;;;;;5083493;28;20492;-55
2024/01/23 02:52:16;;;;;;;7.30;2.28;;;;;;;;;;5089591;28;20467;-55
2024/01/23 02:54:43;;;;;;;10.93;2.07;;;;;;;;;;5091948;28;20401;-56
2024/01/23 02:57:09;;;;;;;7.07;2.00;;;;;;;;;;5091692;28;20404;-56
2024/01/23 02:59:35;;;;;;;7.18;1.92;;;;;;;;;;5089271;28;20401;-53
2024/01/23 03:02:01;;;;;;;10.73;2.28;;;;;;;;;;5089990;28;20400;-56
2024/01/23 03:04:27;;;;;;;7.82;2.00;;;;;;;;;;5086394;28;20792;-56
2024/01/23 03:06:52;;;;;;;9.68;2.05;;;;;;;;;;5080834;28;20900;-53
2024/01/23 03:09:18;;;;;;;8.75;1.92;;;;;;;;;;5091396;28;20716;-53
2024/01/23 03:11:44;;;;;;;5.03;1.63;;;;;;;;;;5092226;28;20797;-53
2024/01/23 03:14:11;;;;;;;12.10;1.95;;;;;;;;;;5091142;28;20900;-53
2024/01/23 03:16:37;;;;;;;9.40;2.35;;;;;;;;;;5092076;28;20370;-51
2024/01/23 03:19:03;;;;;;;11.02;2.47;;;;;;;;;;5092326;28;20902;-51
2024/01/23 03:21:29;;;;;;;8.30;2.00;;;;;;;;;;5079674;28;20419;-51
2024/01/23 03:23:58;;;;;;;7.47;1.75;;;;;;;;;;5072845;28;20852;-51
2024/01/23 03:26:23;;;;;;;10.47;1.97;;;;;;;;;;5079180;28;20442;-51
2024/01/23 03:28:49;;;;;;;6.30;1.50;;;;;;;;;;5073112;28;20376;-52
2024/01/23 03:31:15;;;;;;;7.65;1.77;;;;;;;;;;5086262;28;20411;-52
2024/01/23 03:33:42;;;;;;;10.38;1.90;;;;;;;;;;5087136;28;20425;-52
2024/01/23 03:36:08;;;;;;;6.57;1.83;;;;;;;;;;5088252;28;20445;-51
2024/01/23 03:38:34;;;;;;;6.53;1.67;;;;;;;;;;5080859;28;20393;-51
2024/01/23 03:41:00;;;;;;;8.60;2.03;;;;;;;;;;5089587;28;20386;-51
2024/01/23 03:43:26;;;;;;;10.75;2.35;;;;;;;;;;5091396;28;20397;-51
2024/01/23 03:45:52;;;;;;;7.15;2.15;;;;;;;;;;5088778;28;20539;-51
2024/01/23 03:48:18;;;;;;;7.55;2.63;;;;;;;;;;5091758;28;20402;-52
2024/01/23 03:50:44;;;;;;;9.05;2.30;;;;;;;;;;5092093;28;20374;-51
2024/01/23 03:53:10;;;;;;;10.63;2.22;;;;;;;;;;5074842;28;21136;-52
2024/01/23 03:55:36;;;;;;;5.57;1.70;;;;;;;;;;5091907;28;20381;-52
2024/01/23 03:58:02;;;;;;;6.85;1.70;;;;;;;;;;5091925;28;20382;-54
2024/01/23 04:00:28;;;;;;;5.28;1.42;;;;;;;;;;5081848;28;20398;-51
2024/01/23 04:02:55;;;;;;;8.48;1.95;;;;;;;;;;5089961;28;20396;-52
2024/01/23 04:05:21;;;;;;;6.72;1.60;;;;;;;;;;5079475;28;21721;-51
2024/01/23 04:07:48;;;;;;;8.00;1.80;;;;;;;;;;5089503;28;20515;-51
2024/01/23 04:10:14;;;;;;;9.15;1.98;;;;;;;;;;5085660;28;20870;-51
2024/01/23 04:12:43;;;;;;;7.85;1.80;;;;;;;;;;5091036;28;20413;-52
2024/01/23 04:15:09;;;;;;;8.80;1.92;;;;;;;;;;5090916;28;20413;-52
2024/01/23 04:17:35;;;;;;;6.63;1.60;;;;;;;;;;5091384;28;20923;-53
2024/01/23 04:20:01;;;;;;;6.82;2.00;;;;;;;;;;5082769;28;20374;-51
2024/01/23 04:22:27;;;;;;;8.18;2.13;;;;;;;;;;5090676;28;20398;-51
2024/01/23 04:24:54;;;;;;;6.97;1.60;;;;;;;;;;5090356;28;20397;-53
2024/01/23 04:27:20;;;;;;;8.43;1.50;;;;;;;;;;5088656;28;20767;-52
2024/01/23 04:29:46;;;;;;;5.75;1.55;;;;;;;;;;5091219;28;20879;-55
2024/01/23 04:32:12;;;;;;;6.70;1.53;;;;;;;;;;5090146;28;20446;-53
2024/01/23 04:34:38;;;;;;;5.20;1.42;;;;;;;;;;5090076;28;20378;-53
2024/01/23 04:37:04;;;;;;;10.18;1.80;;;;;;;;;;5090405;28;20401;-55
2024/01/23 04:39:30;;;;;;;10.25;1.75;;;;;;;;;;5090562;28;20812;-56
2024/01/23 04:41:56;;;;;;;8.68;1.70;;;;;;;;;;5084595;28;20372;-53
2024/01/23 04:44:21;;;;;;;3.60;1.40;;;;;;;;;;5085858;28;20887;-51
2024/01/23 04:46:48;;;;;;;9.60;2.15;;;;;;;;;;5053738;28;20947;-53
2024/01/23 04:49:14;;;;;;;6.05;1.67;;;;;;;;;;5089782;28;20476;-54
2024/01/23 04:51:40;;;;;;;8.95;1.65;;;;;;;;;;5089520;28;20527;-52
2024/01/23 04:54:05;;;;;;;7.35;1.63;;;;;;;;;;5090024;28;20422;-56
2024/01/23 04:56:31;;;;;;;10.23;2.03;;;;;;;;;;5089659;28;20386;-53
2024/01/23 04:58:57;;;;;;;11.00;2.40;;;;;;;;;;5088333;28;20888;-53
2024/01/23 05:01:23;;;;;;;5.87;1.60;;;;;;;;;;5082278;28;20850;-54
2024/01/23 05:03:49;;;;;;;10.15;2.08;;;;;;;;;;5081973;28;20510;-54
2024/01/23 05:06:15;;;;;;;10.55;1.90;;;;;;;;;;5084274;28;20406;-53
2024/01/23 05:08:41;;;;;;;8.05;1.63;;;;;;;;;;5087131;28;20413;-54
2024/01/23 05:11:08;;;;;;;7.72;1.88;;;;;;;;;;5087922;28;20381;-54
2024/01/23 05:13:34;;;;;;;8.45;1.90;;;;;;;;;;5088475;28;20398;-55
2024/01/23 05:16:00;;;;;;;7.63;1.80;;;;;;;;;;5090077;28;20415;-53
2024/01/23 05:18:26;;;;;;;7.73;2.10;;;;;;;;;;5089566;28;20390;-53
2024/01/23 05:20:52;;;;;;;8.80;1.95;;;;;;;;;;5082561;28;20883;-52
2024/01/23 05:23:18;;;;;;;6.67;1.70;;;;;;;;;;5085770;28;20454;-52
2024/01/23 05:25:44;;;;;;;7.47;1.63;;;;;;;;;;5082756;28;20420;-55
2024/01/23 05:28:10;;;;;;;8.60;1.70;;;;;;;;;;5087581;28;20405;-53
2024/01/23 05:30:36;;;;;;;6.18;1.90;;;;;;;;;;5090235;28;20464;-54
2024/01/23 05:33:02;;;;;;;11.00;2.00;;;;;;;;;;5087613;28;20423;-55
2024/01/23 05:35:28;;;;;;;9.07;2.10;;;;;;;;;;5089118;28;20480;-57
2024/01/23 05:37:54;;;;;;;10.70;1.77;;;;;;;;;;5090500;28;20436;-54
2024/01/23 05:40:20;;;;;;;8.80;1.63;;;;;;;;;;5089610;28;20420;-55
2024/01/23 05:42:46;;;;;;;8.15;1.83;;;;;;;;;;5088971;28;20381;-56
2024/01/23 05:45:13;;;;;;;6.53;1.90;;;;;;;;;;5089614;28;20385;-56
2024/01/23 05:47:39;;;;;;;8.25;1.60;;;;;;;;;;5089649;28;20393;-48
2024/01/23 05:50:05;;;;;;;13.40;1.90;;;;;;;;;;5079187;28;20379;-48
2024/01/23 05:52:31;;;;;;;7.72;1.52;;;;;;;;;;5087639;28;20428;-48
2024/01/23 05:54:59;;;;;;;9.80;2.00;;;;;;;;;;5086498;28;20410;-49
2024/01/23 05:57:25;;;;;;;9.75;2.30;;;;;;;;;;5079311;28;20993;-49
2024/01/23 05:59:50;;;;;;;11.15;2.10;;;;;;;;;;5071264;28;20524;-49
2024/01/23 06:02:16;;;;;;;10.57;2.38;;;;;;;;;;5089823;28;20382;-48
2024/01/23 06:04:42;;;;;;;12.60;2.03;;;;;;;;;;5089440;28;20919;-49
2024/01/23 06:07:08;;;;;;;10.85;1.98;;;;;;;;;;5082559;28;20378;-49
2024/01/23 06:09:34;;;;;;;12.18;2.20;;;;;;;;;;5085226;28;20409;-49
2024/01/23 06:12:00;;;;;;;13.85;2.15;;;;;;;;;;5081528;28;20401;-50
2024/01/23 06:14:26;;;;;;;8.32;2.03;;;;;;;;;;5082731;28;20413;-53
2024/01/23 06:16:52;;;;;;;15.95;2.45;;;;;;;;;;5083518;28;20859;-51
2024/01/23 06:19:19;;;;;;;12.00;2.33;;;;;;;;;;5084794;28;20772;-52
2024/01/23 06:21:45;;;;;;;11.52;2.13;;;;;;;;;;5085266;28;20402;-49
2024/01/23 06:24:11;;;;;;;12.90;2.10;;;;;;;;;;5083369;28;21141;-49
2024/01/23 06:26:37;;;;;;;8.73;2.15;;;;;;;;;;5077732;28;20871;-49
2024/01/23 06:29:04;;;;;;;10.57;2.07;;;;;;;;;;5092893;28;20389;-48
2024/01/23 06:31:30;;;;;;;15.10;2.58;;;;;;;;;;5092332;28;20465;-48
2024/01/23 06:33:57;;;;;;;12.77;2.60;;;;;;;;;;5091899;28;20551;-49
2024/01/23 06:36:23;;;;;;;11.77;2.40;;;;;;;;;;5091492;28;20394;-48
2024/01/23 06:38:49;;;;;;;14.40;2.47;;;;;;;;;;5093642;28;20914;-50
2024/01/23 06:41:15;;;;;;;16.73;2.90;;;;;;;;;;5093643;28;20425;-48
2024/01/23 06:43:41;;;;;;;16.83;2.65;;;;;;;;;;5093064;28;20872;-49
2024/01/23 06:46:07;;;;;;;11.55;2.55;;;;;;;;;;5093629;28;20415;-55
2024/01/23 06:48:33;;;;;;;16.40;2.50;;;;;;;;;;5093574;28;20396;-54
2024/01/23 06:50:59;;;;;;;10.17;2.80;;;;;;;;;;5093270;28;20897;-53
2024/01/23 06:53:25;;;;;;;15.88;2.58;;;;;;;;;;5092682;28;20501;-53
2024/01/23 06:55:51;;;;;;;16.73;2.70;;;;;;;;;;5074187;28;20401;-51
2024/01/23 06:58:17;;;;;;;14.63;2.60;;;;;;;;;;5092969;28;20374;-50
2024/01/23 07:00:43;;;;;;;14.25;2.70;;;;;;;;;;5093549;28;20374;-50
2024/01/23 07:03:09;;;;;;;18.20;3.10;;;;;;;;;;5093265;28;20430;-51
2024/01/23 07:05:35;;;;;;;14.37;2.83;;;;;;;;;;5092615;28;20496;-49
2024/01/23 07:08:05;;;;;;;16.52;2.60;;;;;;;;;;5092547;28;20398;-48
2024/01/23 07:10:31;;;;;;;16.17;2.80;;;;;;;;;;5091386;28;20423;-49
2024/01/23 07:12:57;;;;;;;13.43;2.63;;;;;;;;;;5089974;28;20410;-50
2024/01/23 07:15:23;;;;;;;8.48;2.20;;;;;;;;;;5091569;28;20400;-49
2024/01/23 07:17:51;;;;;;;15.50;2.80;;;;;;;;;;5092623;28;20401;-49
2024/01/23 07:20:17;;;;;;;13.15;2.95;;;;;;;;;;5091891;28;20447;-49
2024/01/23 07:22:43;;;;;;;11.57;2.70;;;;;;;;;;5092372;28;20449;-50
2024/01/23 07:25:09;;;;;;;16.07;3.00;;;;;;;;;;5091309;28;20440;-48
2024/01/23 07:27:35;;;;;;;11.00;2.78;;;;;;;;;;5092031;28;20382;-50
2024/01/23 07:30:01;;;;;;;10.80;2.60;;;;;;;;;;5090291;28;20871;-48
2024/01/23 07:32:27;;;;;;;12.77;2.60;;;;;;;;;;5092133;28;20432;-50
2024/01/23 07:34:53;;;;;;;17.50;3.40;;;;;;;;;;5090874;28;20451;-49
2024/01/23 07:37:19;;;;;;;15.77;2.80;;;;;;;;;;5092076;28;20863;-51
2024/01/23 07:39:45;;;;;;;13.90;2.60;;;;;;;;;;5084668;28;20867;-50
2024/01/23 07:42:11;;;;;;;16.80;3.15;;;;;;;;;;5091567;28;20877;-50
2024/01/23 07:44:39;;;;;;;14.65;2.92;;;;;;;;;;5091502;28;20845;-50
2024/01/23 07:47:05;;;;;;;14.63;3.25;;;;;;;;;;5091928;28;20370;-49
2024/01/23 07:49:31;;;;;;;15.95;3.22;;;;;;;;;;5090202;28;20394;-50
2024/01/23 07:51:57;;;;;;;11.47;2.93;;;;;;;;;;5090952;28;20416;-50
2024/01/23 07:54:23;;;;;;;12.20;3.10;;;;;;;;;;5091051;28;20417;-49
2024/01/23 07:56:50;;;;;;;15.82;2.95;;;;;;;;;;5091529;28;20431;-51
2024/01/23 07:59:16;;;;;;;17.13;2.75;;;;;;;;;;5091393;28;20367;-51
2024/01/23 08:01:42;;;;;;;14.93;2.92;;;;;;;;;;5089571;28;20409;-51
2024/01/23 08:04:10;;;;;;;14.30;2.88;;;;;;;;;;5069519;28;20870;-53
2024/01/23 08:06:36;;;;;;;12.98;2.67;;;;;;;;;;5091167;28;20899;-51
2024/01/23 08:09:04;;;;;;;14.93;3.20;;;;;;;;;;5091190;28;20421;-51
2024/01/23 08:11:31;;;;;;;14.15;2.90;;;;;;;;;;5091236;28;20378;-50
2024/01/23 08:13:57;;;;;;;18.00;3.13;;;;;;;;;;5089121;28;20910;-54
2024/01/23 08:16:25;;;;;;;19.95;3.05;;;;;;;;;;5091114;28;20393;-52
2024/01/23 08:18:51;;;;;;;13.18;3.00;;;;;;;;;;5091145;28;20810;-55
2024/01/23 08:21:17;;;;;;;13.38;2.85;;;;;;;;;;5090336;28;20406;-51
2024/01/23 08:23:43;;;;;;;16.55;3.38;;;;;;;;;;5090458;28;20382;-50
2024/01/23 08:26:09;;;;;;;12.57;2.83;;;;;;;;;;5090913;28;20414;-52
2024/01/23 08:28:35;;;;;;;14.38;3.25;;;;;;;;;;5090355;28;20897;-53
2024/01/23 08:31:03;;;;;;;13.55;3.00;;;;;;;;;;5087825;28;20921;-51
2024/01/23 08:33:30;;;;;;;14.23;3.10;;;;;;;;;;5090150;28;20438;-51
2024/01/23 08:35:57;;;;;;;15.30;2.53;;;;;;;;;;5090079;28;20875;-52
2024/01/23 08:38:23;;;;;;;15.37;2.80;;;;;;;;;;5090624;28;20432;-52
2024/01/23 08:40:49;;;;;;;19.23;3.03;;;;;;;;;;5090478;28;20844;-51
2024/01/23 08:43:15;;;;;;;12.48;2.63;;;;;;;;;;5090512;28;21055;-51
2024/01/23 08:45:41;;;;;;;14.73;2.92;;;;;;;;;;5087193;28;20493;-52
2024/01/23 08:48:07;;;;;;;15.20;3.33;;;;;;;;;;5084722;28;20885;-52
2024/01/23 08:50:33;;;;;;;13.55;2.75;;;;;;;;;;5079942;28;20371;-55
2024/01/23 08:52:59;;;;;;;14.65;2.65;;;;;;;;;;5088899;28;20956;-51
2024/01/23 08:55:25;;;;;;;14.30;2.92;;;;;;;;;;5089573;28;20381;-53
2024/01/23 08:57:51;;;;;;;14.48;2.88;;;;;;;;;;5081316;28;20480;-52
2024/01/23 09:00:17;;;;;;;15.35;3.25;;;;;;;;;;5089722;28;20440;-53
2024/01/23 09:02:43;;;;;;;15.30;3.28;;;;;;;;;;5089328;28;20378;-53
2024/01/23 09:05:09;;;;;;;16.45;2.75;;;;;;;;;;5088207;28;20412;-51
2024/01/23 09:07:35;;;;;;;15.07;3.30;;;;;;;;;;5089207;28;20405;-53
2024/01/23 09:10:01;;;;;;;15.13;3.08;;;;;;;;;;5090579;28;20452;-54
2024/01/23 09:12:33;;;;;;;14.60;2.65;;;;;;;;;;5089801;28;20397;-54
2024/01/23 09:14:59;;;;;;;17.40;3.55;;;;;;;;;;5087679;28;20425;-53
2024/01/23 09:17:25;;;;;;;15.30;2.93;;;;;;;;;;5089455;28;20378;-52
2024/01/23 09:19:51;;;;;;;14.98;3.47;;;;;;;;;;5089908;28;20980;-53
2024/01/23 09:22:17;;;;;;;12.43;3.20;;;;;;;;;;5088950;28;20934;-51
2024/01/23 09:24:43;;;;;;;9.87;2.73;;;;;;;;;;5086251;28;20488;-52
2024/01/23 09:27:10;;;;;;;14.73;2.87;;;;;;;;;;5076256;28;20385;-52
2024/01/23 09:29:37;;;;;;;15.95;3.33;;;;;;;;;;5089449;28;20390;-51
2024/01/23 09:32:03;;;;;;;17.52;3.05;;;;;;;;;;5089174;28;20393;-52
2024/01/23 09:34:29;;;;;;;17.90;3.22;;;;;;;;;;5086720;28;20458;-52
2024/01/23 09:36:55;;;;;;;15.73;2.78;;;;;;;;;;5088015;28;20484;-51
2024/01/23 09:39:21;;;;;;;14.20;2.95;;;;;;;;;;5087620;28;20417;-54
2024/01/23 09:41:50;;;;;;;14.25;3.47;;;;;;;;;;5088771;28;20394;-52
2024/01/23 09:44:19;;;;;;;14.63;2.90;;;;;;;;;;5089512;28;20378;-52
2024/01/23 09:46:45;;;;;;;16.08;3.33;;;;;;;;;;5089750;28;20378;-51
2024/01/23 09:49:12;;;;;;;10.98;3.25;;;;;;;;;;5086648;28;20433;-55
2024/01/23 09:51:42;;;;;;;17.25;3.70;;;;;;;;;;5089006;28;20386;-53
2024/01/23 09:54:10;;;;;;;16.33;2.90;;;;;;;;;;5089560;28;20398;-51
2024/01/23 09:56:38;;;;;;;17.52;2.97;;;;;;;;;;5086144;28;20903;-53
2024/01/23 09:59:04;;;;;;;17.42;2.72;;;;;;;;;;5089434;28;20370;-51
2024/01/23 10:01:30;;;;;;;14.60;3.10;;;;;;;;;;5089818;28;20412;-51
2024/01/23 10:03:58;;;;;;;14.32;2.78;;;;;;;;;;5091777;28;20484;-54
2024/01/23 10:06:24;;;;;;;15.48;3.38;;;;;;;;;;5080875;28;20381;-55
2024/01/23 10:08:50;;;;;;;16.10;2.80;;;;;;;;;;5093119;28;20455;-51
2024/01/23 10:11:16;;;;;;;18.00;3.25;;;;;;;;;;5091806;28;20397;-51
2024/01/23 10:13:43;;;;;;;13.40;2.80;;;;;;;;;;5092888;28;20413;-53
2024/01/23 10:16:10;;;;;;;14.13;2.83;;;;;;;;;;5090958;28;20972;-57
2024/01/23 10:18:36;;;;;;;15.70;3.22;;;;;;;;;;5091666;28;20473;-58
2024/01/23 10:21:03;;;;;;;17.00;3.60;;;;;;;;;;5086178;28;20455;-56
2024/01/23 10:23:28;;;;;;;18.88;3.00;;;;;;;;;;5085952;28;20385;-57
2024/01/23 10:25:58;;;;;;;15.13;3.10;;;;;;;;;;5092615;28;20431;-58
2024/01/23 10:28:24;;;;;;;17.05;2.65;;;;;;;;;;5093235;28;20464;-58
2024/01/23 10:30:51;;;;;;;14.45;3.10;;;;;;;;;;5093058;28;20373;-57
2024/01/23 10:33:17;;;;;;;18.75;3.15;;;;;;;;;;5084579;28;20500;-57
2024/01/23 10:35:43;;;;;;;14.40;3.13;;;;;;;;;;5093380;28;20386;-58
2024/01/23 10:38:14;;;;;;;10.90;2.90;;;;;;;;;;5091589;28;20817;-55
2024/01/23 10:40:40;;;;;;;16.95;3.38;;;;;;;;;;5093226;28;20736;-55
2024/01/23 10:43:07;;;;;;;18.20;3.35;;;;;;;;;;5082715;28;20895;-58
2024/01/23 10:45:35;;;;;;;11.87;2.93;;;;;;;;;;5092917;28;20879;-57
2024/01/23 10:48:02;;;;;;;13.70;2.67;;;;;;;;;;5091505;28;20383;-58
2024/01/23 10:50:33;;;;;;;12.48;3.40;;;;;;;;;;5072295;28;20424;-58
2024/01/23 10:53:03;;;;;;;14.70;3.35;;;;;;;;;;5076246;28;20795;-57
2024/01/23 10:55:31;;;;;;;11.82;2.55;;;;;;;;;;5092209;28;20380;-56
2024/01/23 10:58:00;;;;;;;19.67;3.20;;;;;;;;;;5091820;28;20410;-57
2024/01/23 11:00:27;;;;;;;14.77;3.25;;;;;;;;;;5086431;28;20378;-57
2024/01/23 11:02:53;;;;;;;15.75;3.25;;;;;;;;;;5092804;28;20389;-58
2024/01/23 11:05:31;;;;;;;15.60;3.28;;;;;;;;;;5073858;28;20879;-59
2024/01/23 11:07:58;;;;;;;14.93;3.08;;;;;;;;;;5088927;28;20426;-57
2024/01/23 11:10:24;;;;;;;16.20;3.38;;;;;;;;;;5089249;28;20386;-58
2024/01/23 11:12:56;;;;;;;20.07;3.87;;;;;;;;;;5086409;28;20913;-56
2024/01/23 11:15:23;;;;;;;15.37;2.97;;;;;;;;;;5080857;28;20966;-57
2024/01/23 11:17:49;;;;;;;14.65;3.22;;;;;;;;;;5089787;28;20398;-59
2024/01/23 11:20:18;;;;;;;14.13;3.45;;;;;;;;;;5096772;28;20386;-58
2024/01/23 11:22:44;;;;;;;12.23;2.90;;;;;;;;;;5098379;28;20386;-56
2024/01/23 11:25:10;;;;;;;14.77;3.40;;;;;;;;;;5093722;28;20490;-57
2024/01/23 11:27:38;;;;;;;17.15;3.53;;;;;;;;;;5093776;28;20925;-54
2024/01/23 11:30:04;;;;;;;11.30;2.85;;;;;;;;;;5098948;28;20381;-50
2024/01/23 11:32:30;;;;;;;14.70;3.10;;;;;;;;;;5099136;28;21951;-52
2024/01/23 11:35:00;;;;;;;17.33;3.40;;;;;;;;;;5096399;28;20372;-52
2024/01/23 11:37:29;;;;;;;12.07;2.75;;;;;;;;;;5095133;28;20462;-52
2024/01/23 11:39:55;;;;;;;17.13;3.75;;;;;;;;;;5098589;28;20370;-54
2024/01/23 11:42:21;;;;;;;16.07;3.30;;;;;;;;;;5098521;28;20409;-55
2024/01/23 11:44:47;;;;;;;11.13;3.20;;;;;;;;;;5098866;28;20875;-52
2024/01/23 11:47:13;;;;;;;13.23;3.15;;;;;;;;;;5100844;28;20385;-52
2024/01/23 11:49:39;;;;;;;17.75;3.20;;;;;;;;;;5102100;28;20377;-52
2024/01/23 11:52:05;;;;;;;18.05;3.13;;;;;;;;;;5096946;28;20380;-52
2024/01/23 11:54:32;;;;;;;14.45;3.00;;;;;;;;;;5103199;28;20916;-51
2024/01/23 11:56:58;;;;;;;16.95;3.22;;;;;;;;;;5097790;28;20380;-52
2024/01/23 11:59:24;;;;;;;13.68;3.13;;;;;;;;;;5097778;28;20471;-55
2024/01/23 12:01:50;;;;;;;18.80;3.45;;;;;;;;;;5098091;28;20763;-55
2024/01/23 12:04:16;;;;;;;20.23;3.58;;;;;;;;;;5098118;28;20441;-54
2024/01/23 12:06:42;;;;;;;13.20;3.00;;;;;;;;;;5099873;28;20384;-54
2024/01/23 12:09:08;;;;;;;17.23;3.05;;;;;;;;;;5095211;28;20411;-52
2024/01/23 12:11:36;;;;;;;13.75;3.47;;;;;;;;;;5097191;28;20380;-51
2024/01/23 12:14:02;;;;;;;16.93;3.20;;;;;;;;;;5098241;28;20407;-54
2024/01/23 12:16:28;;;;;;;16.25;3.35;;;;;;;;;;5091553;28;20812;-54
2024/01/23 12:18:57;;;;;;;20.02;3.58;;;;;;;;;;5084289;28;20423;-55
2024/01/23 12:21:23;;;;;;;13.55;2.70;;;;;;;;;;5084440;28;20378;-52
2024/01/23 12:23:49;;;;;;;15.55;3.65;;;;;;;;;;5088574;28;20402;-51
2024/01/23 12:26:17;;;;;;;19.05;3.10;;;;;;;;;;5082652;28;20405;-54
2024/01/23 12:28:44;;;;;;;13.43;3.30;;;;;;;;;;5085905;28;20419;-51
2024/01/23 12:31:11;;;;;;;14.73;2.72;;;;;;;;;;5090744;28;20996;-51
2024/01/23 12:33:41;;;;;;;14.77;3.22;;;;;;;;;;5090230;28;20438;-51
2024/01/23 12:36:07;;;;;;;22.33;4.60;;;;;;;;;;5091077;28;20382;-57
2024/01/23 12:38:33;;;;;;;15.85;3.47;;;;;;;;;;5089497;28;20938;-58
2024/01/23 12:41:02;;;;;;;21.23;3.08;;;;;;;;;;5085349;28;20397;-58
2024/01/23 12:43:28;;;;;;;15.93;3.40;;;;;;;;;;5089843;28;20390;-57
2024/01/23 12:45:55;;;;;;;20.88;3.50;;;;;;;;;;5088724;28;20401;-52
2024/01/23 12:48:21;;;;;;;19.27;4.20;;;;;;;;;;5088861;28;20384;-54
2024/01/23 12:50:48;;;;;;;14.80;3.28;;;;;;;;;;5090424;28;20386;-51
2024/01/23 12:53:14;;;;;;;18.15;3.33;;;;;;;;;;5089546;28;20417;-49
2024/01/23 12:55:40;;;;;;;14.07;2.93;;;;;;;;;;5090203;28;20382;-50
2024/01/23 12:58:09;;;;;;;17.52;3.47;;;;;;;;;;5088085;28;20480;-53
2024/01/23 13:00:35;;;;;;;19.75;3.50;;;;;;;;;;5090132;28;20369;-52
2024/01/23 13:03:01;;;;;;;20.73;3.60;;;;;;;;;;5090331;28;20385;-50
2024/01/23 13:05:27;;;;;;;22.15;3.83;;;;;;;;;;5089193;28;20453;-50
2024/01/23 13:07:54;;;;;;;16.33;3.27;;;;;;;;;;5083259;28;20741;-49
2024/01/23 13:10:20;;;;;;;19.30;3.70;;;;;;;;;;5089875;28;20397;-50
2024/01/23 13:12:46;;;;;;;16.35;3.53;;;;;;;;;;5089916;28;20405;-49
2024/01/23 13:15:12;;;;;;;19.77;3.77;;;;;;;;;;5080857;28;20413;-51
2024/01/23 13:17:38;;;;;;;18.95;3.55;;;;;;;;;;5086811;28;20456;-50
2024/01/23 13:20:09;;;;;;;22.40;3.45;;;;;;;;;;5089331;28;20380;-52
2024/01/23 13:22:36;;;;;;;15.40;3.83;;;;;;;;;;5089301;28;20397;-54
2024/01/23 13:25:02;;;;;;;19.27;4.00;;;;;;;;;;5089488;28;20447;-51
2024/01/23 13:27:28;;;;;;;19.30;3.70;;;;;;;;;;5086934;28;20400;-53
2024/01/23 13:29:54;;;;;;;18.30;3.20;;;;;;;;;;5084238;28;20394;-53
2024/01/23 13:32:22;;;;;;;20.38;4.20;;;;;;;;;;5078639;28;20392;-51
2024/01/23 13:34:48;;;;;;;19.05;3.20;;;;;;;;;;5079464;28;20410;-49
2024/01/23 13:37:14;;;;;;;17.80;4.07;;;;;;;;;;5079217;28;20370;-50
2024/01/23 13:39:40;;;;;;;16.17;3.70;;;;;;;;;;5086757;28;20420;-50
2024/01/23 13:42:06;;;;;;;21.13;3.63;;;;;;;;;;5076118;28;20403;-52
2024/01/23 13:44:32;;;;;;;18.60;4.13;;;;;;;;;;5083733;28;20401;-50
2024/01/23 13:46:58;;;;;;;15.43;3.38;;;;;;;;;;5077388;28;20741;-52
2024/01/23 13:49:24;;;;;;;25.98;3.80;;;;;;;;;;5084198;28;20389;-52
2024/01/23 13:51:50;;;;;;;18.73;3.78;;;;;;;;;;5089762;28;20390;-51
2024/01/23 13:54:16;;;;;;;20.23;3.25;;;;;;;;;;5081758;28;20436;-50
2024/01/23 13:56:42;;;;;;;21.23;3.42;;;;;;;;;;5086014;28;20428;-55
2024/01/23 13:59:07;;;;;;;19.37;3.50;;;;;;;;;;5087928;28;20511;-59
2024/01/23 14:01:34;;;;;;;17.23;3.53;;;;;;;;;;5088207;28;20385;-57
2024/01/23 14:04:03;;;;;;;21.70;3.87;;;;;;;;;;5087109;28;20382;-56
2024/01/23 14:06:29;;;;;;;17.27;3.22;;;;;;;;;;5088728;28;20416;-58
2024/01/23 14:08:56;;;;;;;17.88;3.33;;;;;;;;;;5085840;28;20429;-58
2024/01/23 14:11:22;;;;;;;24.50;4.47;;;;;;;;;;5086741;28;20406;-58
2024/01/23 14:13:49;;;;;;;15.00;3.03;;;;;;;;;;5079830;28;20494;-58
2024/01/23 14:16:15;;;;;;;19.55;3.38;;;;;;;;;;5078543;28;20395;-57
2024/01/23 14:18:41;;;;;;;21.50;3.63;;;;;;;;;;5086249;28;20417;-57
2024/01/23 14:21:08;;;;;;;16.13;3.05;;;;;;;;;;5089249;28;20786;-57
2024/01/23 14:23:34;;;;;;;20.98;3.22;;;;;;;;;;5086189;28;20390;-58
2024/01/23 14:26:02;;;;;;;16.58;3.30;;;;;;;;;;5082991;28;20417;-57
2024/01/23 14:28:28;;;;;;;13.90;3.05;;;;;;;;;;5088960;28;20385;-57